This is the latest recevied weather packets stored in our database for station/object KB9MLJ. If no packets are shown the sender has not sent any weather packets the latest 10 day(s).
| Time | Temp. | Humidity | Pressure | Rain* | Wind** | Luminosity | Snow |
|---|---|---|---|---|---|---|---|
| 1777603485 | 7.78° C | 99% | 1014.4 hPa | 0 mm | - | 0 W/m² | - |
| 1777603181 | 7.78° C | 99% | 1014.4 hPa | 0 mm | - | 0 W/m² | - |
| 1777602877 | 7.78° C | 99% | 1014.4 hPa | 0 mm | - | 0 W/m² | - |
| 1777602577 | 7.78° C | 99% | 1014.4 hPa | 0 mm | - | 0 W/m² | - |
| 1777602273 | 7.78° C | 99% | 1014 hPa | 0 mm | - | 0 W/m² | - |
| 1777601974 | 8.33° C | 99% | 1014.4 hPa | 0 mm | - | 0 W/m² | - |
| 1777601669 | 8.33° C | 98% | 1014.4 hPa | 0 mm | - | 0 W/m² | - |
| 1777601365 | 8.33° C | 97% | 1014.4 hPa | 0 mm | - | 0 W/m² | - |
| 1777600150 | 8.89° C | 96% | 1014 hPa | 0.25 mm | - | 0 W/m² | - |
| 1777586799 | 12.78° C | 66% | 1013.7 hPa | 0 mm | - | 139 W/m² | - |
| 1777586190 | 12.78° C | 64% | 1014 hPa | 0 mm | - | 143 W/m² | - |
| 1777585888 | 13.33° C | 64% | 1014.4 hPa | 0 mm | - | 147 W/m² | - |
| 1777584373 | 13.33° C | 62% | 1014 hPa | 0 mm | - | 105 W/m² | - |
| 1777584069 | 13.33° C | 60% | 1014 hPa | 0 mm | - | 60 W/m² | - |
| 1777583763 | 13.89° C | 54% | 1014 hPa | 0 mm | - | 44 W/m² | - |
| 1777583162 | 13.89° C | 57% | 1014 hPa | 0 mm | - | 64 W/m² | - |
| 1777582858 | 13.89° C | 52% | 1014.4 hPa | 0 mm | - | 52 W/m² | - |
| 1777582555 | 14.44° C | 51% | 1014.4 hPa | 0 mm | - | 72 W/m² | - |
| 1777582251 | 13.89° C | 50% | 1014.4 hPa | 0 mm | - | 73 W/m² | - |
| 1777581338 | 15° C | 47% | 1014.4 hPa | 0 mm | - | 45 W/m² | - |
| 1777580124 | 15.56° C | 44% | 1014 hPa | 0 mm | - | 162 W/m² | - |
| 1777579821 | 15.56° C | 43% | 1014.4 hPa | 0 mm | - | 142 W/m² | - |
| 1777579520 | 15.56° C | 42% | 1014.4 hPa | 0 mm | - | 156 W/m² | - |
| 1777578916 | 15.56° C | 42% | 1014.4 hPa | 0 mm | - | 206 W/m² | - |
| 1777577400 | 15.56° C | 42% | 1014.4 hPa | 0 mm | - | 261 W/m² | - |
* Rain latest hour (hover to see other rain measurements)
** Current wind speed in m/s (hover to see current wind gust speed)